Terminal Aerodrome Forecast
Issued by NWS

Home | Current Version | Previous Version | Text Only | Print | Product List | Glossary On
Versions: 1 2 3 4 5 6 7 8 9 10 11 12 13 14 15 16 17 18 19 20 21 22 23 24 25
000
FTUS45 KVEF 070535
TAFVGT
TAF
KVGT 070535Z 0706/0806 33006KT P6SM SCT120 OVC150
     FM071000 VRB05KT P6SM FEW120 SCT150
     FM072100 20010KT P6SM VCTS FEW080 SCT120CB BKN150
     FM080400 20009KT P6SM FEW120 SCT150=

USA.gov is the U.S. government's official web portal to all federal, state and local government web resources and services.